createdAt,value
2022-11-24T00:02:20.935Z,95.67
2022-11-24T00:04:48.934Z,95.73
2022-11-24T00:07:16.907Z,95.44
2022-11-24T00:09:44.921Z,95.36
2022-11-24T00:12:12.898Z,95.24
2022-11-24T00:14:40.828Z,95.51
2022-11-24T00:17:08.798Z,95.30
2022-11-24T00:19:36.745Z,95.28
2022-11-24T00:22:04.630Z,95.50
2022-11-24T00:24:32.840Z,95.20
2022-11-24T00:27:00.911Z,95.12
2022-11-24T00:29:28.836Z,95.05
2022-11-24T00:31:56.895Z,94.87
2022-11-24T00:34:24.932Z,94.92
2022-11-24T00:36:52.853Z,94.88
2022-11-24T00:39:20.832Z,95.20
2022-11-24T00:41:48.793Z,95.01
2022-11-24T00:44:16.722Z,94.77
2022-11-24T00:46:44.756Z,94.71
2022-11-24T00:49:12.817Z,94.72
2022-11-24T00:51:40.926Z,94.64
2022-11-24T00:54:08.833Z,94.68
2022-11-24T00:56:37.007Z,94.57
2022-11-24T00:59:04.991Z,94.74
2022-11-24T01:01:33.040Z,94.72
2022-11-24T01:04:02.164Z,94.73
2022-11-24T01:06:31.196Z,94.48
2022-11-24T01:08:59.150Z,94.35
2022-11-24T01:11:28.288Z,94.43
2022-11-24T01:13:58.742Z,94.49
2022-11-24T01:16:30.256Z,94.86
2022-11-24T01:18:58.267Z,94.69
2022-11-24T01:21:26.276Z,94.69
2022-11-24T01:23:54.214Z,95.08
2022-11-24T01:26:23.170Z,95.05
2022-11-24T01:28:56.410Z,94.78
2022-11-24T01:31:26.150Z,95.08
2022-11-24T01:33:55.250Z,94.76
2022-11-24T01:36:23.274Z,94.69
2022-11-24T01:38:52.063Z,94.47
2022-11-24T01:41:24.285Z,94.23
2022-11-24T01:43:53.855Z,93.91
2022-11-24T01:46:32.639Z,94.74
2022-11-24T01:49:12.319Z,94.67
2022-11-24T01:51:50.653Z,94.78
2022-11-24T01:54:22.623Z,94.46
2022-11-24T01:56:55.271Z,94.12
2022-11-24T01:59:24.182Z,94.03
2022-11-24T02:01:53.405Z,94.00
2022-11-24T02:04:27.198Z,94.00
2022-11-24T02:06:59.794Z,94.08
2022-11-24T02:09:39.412Z,94.27
2022-11-24T02:12:07.643Z,94.40
2022-11-24T02:14:37.978Z,94.53
2022-11-24T02:17:05.904Z,94.19
2022-11-24T02:19:36.709Z,94.10
2022-11-24T02:22:04.943Z,94.06
2022-11-24T02:24:47.622Z,94.27
2022-11-24T02:27:15.839Z,94.36
2022-11-24T02:29:43.938Z,94.22
2022-11-24T02:32:12.501Z,94.10
2022-11-24T02:34:40.489Z,94.23
2022-11-24T02:37:08.467Z,94.28
2022-11-24T02:39:36.399Z,94.36
2022-11-24T02:42:09.643Z,94.49
2022-11-24T02:44:46.653Z,94.50
2022-11-24T02:47:14.576Z,94.37
2022-11-24T02:49:42.583Z,94.58
2022-11-24T02:52:10.605Z,94.33
2022-11-24T02:54:38.571Z,94.23
2022-11-24T02:57:06.655Z,94.33
2022-11-24T02:59:34.567Z,94.36
2022-11-24T03:02:03.068Z,94.25
2022-11-24T03:04:31.164Z,94.09
2022-11-24T03:06:59.195Z,94.45
2022-11-24T03:09:27.047Z,94.08
2022-11-24T03:11:54.952Z,94.34
2022-11-24T03:14:22.875Z,94.49
2022-11-24T03:16:50.779Z,94.51
2022-11-24T03:19:18.697Z,94.23
2022-11-24T03:21:46.636Z,94.22
2022-11-24T03:24:14.579Z,94.18
2022-11-24T03:26:42.558Z,93.96
2022-11-24T03:29:10.582Z,93.40
2022-11-24T03:31:38.677Z,93.64
2022-11-24T03:34:06.624Z,94.02
2022-11-24T03:36:34.548Z,94.19
2022-11-24T03:39:02.482Z,93.71
2022-11-24T03:41:30.462Z,93.42
2022-11-24T03:43:58.479Z,92.95
2022-11-24T03:46:26.630Z,93.10
2022-11-24T03:48:54.544Z,93.29
2022-11-24T03:51:22.431Z,93.45
2022-11-24T03:53:50.360Z,93.48
2022-11-24T03:56:18.419Z,93.76
2022-11-24T03:58:46.444Z,93.85
2022-11-24T04:01:14.484Z,93.66
2022-11-24T04:03:42.354Z,93.20
2022-11-24T04:06:10.573Z,93.30
2022-11-24T04:08:38.572Z,93.38
2022-11-24T04:11:07.261Z,93.64
2022-11-24T04:13:35.163Z,93.61
2022-11-24T04:16:06.055Z,93.21
2022-11-24T04:18:34.223Z,93.05
2022-11-24T04:21:02.166Z,93.21
2022-11-24T04:23:30.019Z,93.35
2022-11-24T04:25:57.873Z,93.65
2022-11-24T04:28:25.858Z,93.40
2022-11-24T04:30:53.902Z,93.48
2022-11-24T04:33:21.887Z,93.13
2022-11-24T04:35:53.699Z,93.09
2022-11-24T04:39:20.073Z,93.11
2022-11-24T04:41:09.906Z,93.09
2022-11-24T04:43:40.643Z,93.20
2022-11-24T04:46:11.141Z,93.44
2022-11-24T04:48:39.080Z,93.45
2022-11-24T04:51:07.575Z,93.47
2022-11-24T04:53:35.487Z,93.43
2022-11-24T04:56:06.937Z,93.42
2022-11-24T04:58:34.982Z,93.58
2022-11-24T05:01:08.168Z,93.70
2022-11-24T05:03:37.325Z,93.63
2022-11-24T05:06:05.584Z,93.55
2022-11-24T05:08:33.707Z,93.51
2022-11-24T05:11:06.235Z,93.68
2022-11-24T05:13:34.212Z,93.58
2022-11-24T05:16:02.307Z,93.90
2022-11-24T05:18:30.425Z,93.84
2022-11-24T05:20:59.023Z,93.99
2022-11-24T05:23:27.401Z,93.77
2022-11-24T05:26:00.215Z,93.87
2022-11-24T05:28:28.929Z,93.84
2022-11-24T05:31:03.924Z,94.29
2022-11-24T05:33:33.628Z,94.53
2022-11-24T05:36:03.567Z,94.55
2022-11-24T05:38:32.274Z,94.43
2022-11-24T05:41:01.919Z,94.64
2022-11-24T05:43:30.339Z,94.48
2022-11-24T05:46:01.861Z,94.50
2022-11-24T05:48:29.844Z,94.73
2022-11-24T05:50:58.705Z,94.96
2022-11-24T05:53:27.132Z,94.89
2022-11-24T05:55:55.070Z,94.93
2022-11-24T05:58:23.132Z,95.02
2022-11-24T06:00:50.983Z,94.80
2022-11-24T06:03:19.015Z,95.05
2022-11-24T06:05:47.490Z,95.17
2022-11-24T06:08:15.683Z,95.39
2022-11-24T06:10:43.608Z,95.28
2022-11-24T06:13:11.527Z,95.20
2022-11-24T06:15:40.876Z,95.56
2022-11-24T06:18:08.809Z,95.86
2022-11-24T06:20:36.801Z,95.82
2022-11-24T06:23:04.771Z,96.11
2022-11-24T06:25:32.661Z,96.04
2022-11-24T06:28:04.249Z,96.02
2022-11-24T06:30:32.336Z,96.05
2022-11-24T06:33:00.506Z,96.10
2022-11-24T06:35:28.766Z,96.32
2022-11-24T06:37:56.773Z,96.57
2022-11-24T06:40:24.805Z,96.81
2022-11-24T06:42:52.955Z,96.76
2022-11-24T06:45:20.959Z,96.72
2022-11-24T06:47:49.107Z,96.94
2022-11-24T06:50:17.145Z,97.20
2022-11-24T06:52:45.099Z,97.19
2022-11-24T06:55:13.085Z,97.45
2022-11-24T06:57:41.040Z,97.69
2022-11-24T07:00:09.438Z,97.67
2022-11-24T07:02:42.555Z,97.94
2022-11-24T07:05:14.428Z,98.27
2022-11-24T07:07:42.528Z,98.09
2022-11-24T07:10:10.527Z,97.88
2022-11-24T07:12:38.428Z,98.00
2022-11-24T07:15:07.144Z,98.05
2022-11-24T07:17:39.583Z,98.32
2022-11-24T07:20:09.056Z,98.35
2022-11-24T07:22:37.018Z,98.66
2022-11-24T07:25:07.552Z,98.63
2022-11-24T07:27:36.139Z,98.63
2022-11-24T07:30:04.563Z,99.00
2022-11-24T07:32:33.109Z,98.97
2022-11-24T07:35:01.210Z,99.28
2022-11-24T07:37:31.507Z,99.18
2022-11-24T07:40:00.131Z,99.33
2022-11-24T07:42:28.256Z,99.62
2022-11-24T07:44:56.313Z,99.34
2022-11-24T07:47:24.348Z,99.19
2022-11-24T07:49:52.288Z,99.11
2022-11-24T07:52:20.215Z,99.27
2022-11-24T07:54:48.144Z,99.33
2022-11-24T07:57:16.100Z,99.93
2022-11-24T07:59:44.080Z,100.00
2022-11-24T08:02:13.383Z,99.91
2022-11-24T08:04:41.331Z,99.92
2022-11-24T08:07:09.339Z,99.99
2022-11-24T08:09:37.295Z,100.00
2022-11-24T08:12:05.775Z,100.00
2022-11-24T08:14:33.848Z,100.00
2022-11-24T08:17:05.505Z,99.97
2022-11-24T08:19:34.846Z,99.98
2022-11-24T08:22:02.972Z,100.00
2022-11-24T08:24:32.010Z,100.00
2022-11-24T08:27:00.198Z,99.96
2022-11-24T08:29:29.679Z,99.98
2022-11-24T08:31:58.119Z,99.99
2022-11-24T08:34:26.919Z,100.00
2022-11-24T08:36:55.103Z,99.95
2022-11-24T08:39:23.066Z,99.94
2022-11-24T08:41:51.064Z,99.92
2022-11-24T08:44:18.962Z,99.84
2022-11-24T08:46:46.897Z,99.84
2022-11-24T08:49:15.245Z,99.97
2022-11-24T08:51:43.478Z,99.97
2022-11-24T08:54:13.579Z,99.97
2022-11-24T08:56:42.355Z,99.93
2022-11-24T08:59:13.918Z,99.90
2022-11-24T09:01:42.197Z,99.96
2022-11-24T09:04:10.227Z,99.99
2022-11-24T09:06:38.242Z,100.00
2022-11-24T09:09:06.214Z,99.90
2022-11-24T09:11:34.795Z,99.96
2022-11-24T09:14:03.629Z,99.96
2022-11-24T09:16:31.689Z,99.95
2022-11-24T09:19:02.660Z,99.81
2022-11-24T09:21:34.217Z,99.86
2022-11-24T09:24:02.242Z,99.84
2022-11-24T09:26:32.795Z,99.92
2022-11-24T09:29:02.481Z,99.90
2022-11-24T09:31:36.269Z,99.82
2022-11-24T09:34:06.169Z,99.90
2022-11-24T09:36:35.237Z,99.90
2022-11-24T09:39:03.730Z,99.87
2022-11-24T09:41:41.057Z,99.98
2022-11-24T09:44:24.691Z,99.94
2022-11-24T09:47:04.139Z,99.90
2022-11-24T09:49:55.721Z,100.00
2022-11-24T09:52:41.581Z,100.00
2022-11-24T09:55:28.792Z,100.00
2022-11-24T09:58:30.300Z,100.00
2022-11-24T10:00:59.299Z,100.00
2022-11-24T10:03:39.409Z,100.00
2022-11-24T10:06:27.254Z,100.00
2022-11-24T10:09:15.903Z,100.00
2022-11-24T10:11:58.856Z,100.00
2022-11-24T10:14:29.906Z,100.00
2022-11-24T10:17:17.958Z,100.00
2022-11-24T10:20:11.279Z,100.00
2022-11-24T10:22:51.543Z,100.00
2022-11-24T10:25:30.042Z,100.00
2022-11-24T10:28:10.164Z,100.00
2022-11-24T10:30:38.297Z,100.00
2022-11-24T10:33:24.257Z,100.00
2022-11-24T10:36:09.561Z,100.00
2022-11-24T10:38:45.837Z,100.00
2022-11-24T10:41:35.686Z,100.00
2022-11-24T10:44:03.720Z,100.00
2022-11-24T10:46:36.371Z,100.00
2022-11-24T10:49:07.254Z,100.00
2022-11-24T10:51:48.689Z,100.00
2022-11-24T10:54:23.710Z,100.00
2022-11-24T10:56:54.256Z,100.00
2022-11-24T10:59:25.118Z,100.00
2022-11-24T11:01:53.680Z,100.00
2022-11-24T11:04:27.600Z,100.00
2022-11-24T11:07:20.115Z,100.00
2022-11-24T11:09:48.909Z,100.00
2022-11-24T11:12:44.584Z,100.00
2022-11-24T11:15:29.977Z,100.00
2022-11-24T11:18:01.298Z,100.00
2022-11-24T11:20:32.449Z,100.00
2022-11-24T11:23:03.558Z,100.00
2022-11-24T11:25:34.372Z,100.00
2022-11-24T11:28:31.762Z,100.00
2022-11-24T11:34:18.248Z,100.00
2022-11-24T11:36:53.400Z,100.00
2022-11-24T11:39:24.071Z,100.00
2022-11-24T11:42:02.577Z,100.00
2022-11-24T11:44:52.417Z,100.00
2022-11-24T11:47:28.840Z,100.00
2022-11-24T11:49:58.479Z,100.00
2022-11-24T11:52:56.239Z,100.00
2022-11-24T11:55:46.642Z,100.00
2022-11-24T11:58:49.829Z,100.00
2022-11-24T12:01:23.543Z,100.00
2022-11-24T12:04:12.943Z,100.00
2022-11-24T12:07:02.831Z,100.00
2022-11-24T12:10:08.505Z,100.00
2022-11-24T12:12:45.817Z,100.00
2022-11-24T12:15:32.017Z,100.00
2022-11-24T12:21:40.718Z,100.00
2022-11-24T12:24:30.532Z,100.00
2022-11-24T12:27:22.279Z,100.00
2022-11-24T12:30:08.072Z,100.00
2022-11-24T12:33:08.643Z,100.00
2022-11-24T12:35:45.785Z,100.00
2022-11-24T12:38:25.924Z,100.00
2022-11-24T12:41:39.668Z,100.00
2022-11-24T12:44:02.165Z,100.00
2022-11-24T12:46:30.199Z,100.00
2022-11-24T12:49:10.258Z,100.00
2022-11-24T12:51:52.416Z,100.00
2022-11-24T12:54:23.026Z,100.00
2022-11-24T12:57:07.079Z,100.00
2022-11-24T12:59:51.590Z,100.00
2022-11-24T13:02:54.700Z,100.00
2022-11-24T13:05:42.501Z,100.00
2022-11-24T13:08:11.079Z,100.00
2022-11-24T13:10:55.861Z,100.00
2022-11-24T13:13:29.980Z,100.00
2022-11-24T13:16:35.065Z,100.00
2022-11-24T13:19:10.272Z,100.00
2022-11-24T13:21:41.579Z,100.00
2022-11-24T13:24:20.051Z,100.00
2022-11-24T13:26:51.534Z,100.00
2022-11-24T13:29:29.084Z,100.00
2022-11-24T13:32:03.274Z,100.00
2022-11-24T13:34:40.562Z,100.00
2022-11-24T13:37:28.969Z,100.00
2022-11-24T13:40:12.476Z,100.00
2022-11-24T13:42:58.874Z,100.00
2022-11-24T13:45:39.024Z,100.00
2022-11-24T13:48:18.967Z,100.00
2022-11-24T13:50:50.138Z,100.00
2022-11-24T13:53:43.762Z,100.00
2022-11-24T13:56:11.613Z,100.00
2022-11-24T13:58:39.571Z,100.00
2022-11-24T14:01:10.398Z,100.00
2022-11-24T14:04:22.044Z,100.00
2022-11-24T14:06:49.262Z,100.00
2022-11-24T14:09:23.240Z,100.00
2022-11-24T14:12:22.085Z,100.00
2022-11-24T14:14:52.663Z,100.00
2022-11-24T14:17:27.895Z,100.00
2022-11-24T14:19:57.825Z,100.00
2022-11-24T14:22:39.353Z,100.00
2022-11-24T14:25:32.445Z,100.00
2022-11-24T14:28:00.925Z,100.00
2022-11-24T14:30:29.073Z,100.00
2022-11-24T14:32:58.707Z,100.00
2022-11-24T14:35:29.991Z,100.00
2022-11-24T14:38:06.207Z,100.00
2022-11-24T14:40:42.142Z,100.00
2022-11-24T14:43:20.349Z,100.00
2022-11-24T14:46:18.285Z,100.00
2022-11-24T14:48:48.919Z,100.00
2022-11-24T14:51:34.296Z,100.00
2022-11-24T14:54:05.284Z,100.00
2022-11-24T14:56:35.241Z,100.00
2022-11-24T14:59:04.809Z,100.00
2022-11-24T15:01:34.947Z,100.00
2022-11-24T15:04:54.256Z,100.00
2022-11-24T15:07:25.739Z,100.00
2022-11-24T15:09:59.344Z,100.00
2022-11-24T15:12:39.597Z,100.00
2022-11-24T15:15:13.542Z,100.00
2022-11-24T15:17:55.667Z,100.00
2022-11-24T15:20:37.008Z,100.00
2022-11-24T15:23:23.182Z,100.00
2022-11-24T15:25:53.564Z,100.00
2022-11-24T15:28:26.017Z,100.00
2022-11-24T15:30:55.318Z,100.00
2022-11-24T15:33:23.810Z,100.00
2022-11-24T15:35:52.016Z,100.00
2022-11-24T15:38:20.037Z,100.00
2022-11-24T15:40:50.759Z,100.00
2022-11-24T15:43:36.632Z,100.00
2022-11-24T15:46:05.844Z,100.00
2022-11-24T15:48:33.912Z,100.00
2022-11-24T15:51:03.555Z,100.00
2022-11-24T15:53:36.207Z,100.00
2022-11-24T15:56:07.451Z,100.00
2022-11-24T15:58:35.365Z,100.00
2022-11-24T16:01:03.517Z,100.00
2022-11-24T16:03:48.487Z,100.00
2022-11-24T16:06:24.737Z,100.00
2022-11-24T16:08:54.680Z,100.00
2022-11-24T16:11:23.037Z,100.00
2022-11-24T16:13:53.365Z,100.00
2022-11-24T16:16:23.534Z,100.00
2022-11-24T16:18:51.680Z,100.00
2022-11-24T16:21:19.774Z,100.00
2022-11-24T16:23:48.914Z,100.00
2022-11-24T16:26:16.881Z,100.00
2022-11-24T16:28:45.954Z,100.00
2022-11-24T16:31:16.200Z,100.00
2022-11-24T16:33:45.445Z,100.00
2022-11-24T16:36:14.293Z,100.00
2022-11-24T16:38:42.200Z,100.00
2022-11-24T16:41:10.817Z,100.00
2022-11-24T16:43:38.950Z,100.00
2022-11-24T16:46:19.463Z,100.00
2022-11-24T16:48:50.067Z,100.00
2022-11-24T16:51:20.739Z,100.00
2022-11-24T16:53:56.365Z,100.00
2022-11-24T16:56:24.508Z,100.00
2022-11-24T16:58:52.566Z,100.00
2022-11-24T17:01:21.421Z,100.00
2022-11-24T17:03:49.537Z,100.00
2022-11-24T17:06:17.918Z,100.00
2022-11-24T17:08:47.178Z,100.00
2022-11-24T17:11:22.387Z,100.00
2022-11-24T17:13:50.960Z,100.00
2022-11-24T17:16:21.343Z,100.00
2022-11-24T17:18:58.695Z,100.00
2022-11-24T17:21:28.000Z,100.00
2022-11-24T17:23:57.845Z,100.00
2022-11-24T17:26:27.139Z,100.00
2022-11-24T17:28:56.139Z,100.00
2022-11-24T17:31:32.209Z,100.00
2022-11-24T17:34:00.504Z,100.00
2022-11-24T17:36:30.877Z,100.00
2022-11-24T17:39:04.571Z,100.00
2022-11-24T17:41:34.308Z,100.00
2022-11-24T17:44:02.896Z,100.00
2022-11-24T17:46:31.160Z,100.00
2022-11-24T17:48:59.175Z,100.00
2022-11-24T17:51:27.222Z,100.00
2022-11-24T17:53:57.694Z,100.00
2022-11-24T17:56:27.342Z,100.00
2022-11-24T17:58:58.775Z,100.00
2022-11-24T18:01:30.316Z,100.00
2022-11-24T18:03:58.844Z,100.00
2022-11-24T18:06:28.733Z,100.00
2022-11-24T18:08:57.996Z,100.00
2022-11-24T18:11:32.083Z,100.00
2022-11-24T18:14:02.384Z,100.00
2022-11-24T18:16:32.510Z,100.00
2022-11-24T18:19:11.369Z,100.00
2022-11-24T18:21:41.458Z,100.00
2022-11-24T18:24:11.041Z,100.00
2022-11-24T18:26:40.599Z,100.00
2022-11-24T18:29:09.069Z,100.00
2022-11-24T18:31:37.669Z,100.00
2022-11-24T18:34:06.307Z,100.00
2022-11-24T18:36:35.150Z,100.00
2022-11-24T18:39:05.541Z,100.00
2022-11-24T18:41:34.567Z,100.00
2022-11-24T18:44:14.972Z,100.00
2022-11-24T18:46:43.243Z,100.00
2022-11-24T18:49:11.268Z,100.00
2022-11-24T18:51:39.293Z,100.00
2022-11-24T18:54:07.411Z,100.00
2022-11-24T18:56:35.394Z,100.00
2022-11-24T18:59:11.240Z,100.00
2022-11-24T19:01:39.250Z,100.00
2022-11-24T19:04:07.320Z,100.00
2022-11-24T19:06:38.030Z,100.00
2022-11-24T19:09:31.437Z,100.00
2022-11-24T19:12:00.042Z,100.00
2022-11-24T19:14:28.107Z,100.00
2022-11-24T19:16:56.489Z,100.00
2022-11-24T19:19:24.527Z,100.00
2022-11-24T19:21:52.462Z,100.00
2022-11-24T19:24:41.658Z,100.00
2022-11-24T19:27:10.830Z,100.00
2022-11-24T19:29:42.948Z,100.00
2022-11-24T19:32:11.565Z,100.00
2022-11-24T19:34:39.728Z,100.00
2022-11-24T19:37:07.728Z,100.00
2022-11-24T19:39:36.286Z,100.00
2022-11-24T19:42:04.914Z,100.00
2022-11-24T19:44:33.010Z,100.00
2022-11-24T19:47:01.710Z,100.00
2022-11-24T19:49:29.666Z,100.00
2022-11-24T19:51:57.685Z,100.00
2022-11-24T19:54:25.712Z,100.00
2022-11-24T19:56:55.481Z,100.00
2022-11-24T19:59:24.043Z,100.00
2022-11-24T20:01:52.765Z,100.00
2022-11-24T20:04:20.913Z,100.00
2022-11-24T20:06:49.156Z,100.00
2022-11-24T20:09:17.883Z,100.00
2022-11-24T20:11:46.117Z,100.00
2022-11-24T20:14:16.188Z,100.00
2022-11-24T20:16:46.552Z,100.00
2022-11-24T20:19:16.445Z,100.00
2022-11-24T20:21:47.778Z,100.00
2022-11-24T20:24:19.354Z,100.00
2022-11-24T20:26:50.186Z,100.00
2022-11-24T20:29:20.196Z,100.00
2022-11-24T20:31:51.420Z,100.00
2022-11-24T20:34:20.684Z,100.00
2022-11-24T20:36:49.122Z,100.00
2022-11-24T20:39:25.437Z,100.00
2022-11-24T20:41:55.141Z,100.00
2022-11-24T20:44:26.833Z,100.00
2022-11-24T20:46:56.871Z,100.00
2022-11-24T20:49:25.163Z,100.00
2022-11-24T20:51:57.461Z,100.00
2022-11-24T20:54:25.856Z,100.00
2022-11-24T20:56:54.334Z,100.00
2022-11-24T20:59:23.849Z,100.00
2022-11-24T21:01:55.281Z,100.00
2022-11-24T21:04:25.568Z,100.00
2022-11-24T21:06:53.655Z,100.00
2022-11-24T21:09:21.653Z,100.00
2022-11-24T21:11:49.593Z,100.00
2022-11-24T21:14:17.565Z,100.00
2022-11-24T21:16:45.675Z,100.00
2022-11-24T21:19:19.481Z,100.00
2022-11-24T21:21:48.862Z,100.00
2022-11-24T21:24:18.963Z,100.00
2022-11-24T21:26:51.749Z,100.00
2022-11-24T21:29:22.458Z,100.00
2022-11-24T21:31:50.664Z,100.00
2022-11-24T21:34:19.521Z,100.00
2022-11-24T21:36:48.044Z,100.00
2022-11-24T21:39:16.600Z,100.00
2022-11-24T21:41:44.813Z,100.00
2022-11-24T21:44:14.167Z,100.00
2022-11-24T21:46:48.239Z,100.00
2022-11-24T21:49:21.004Z,100.00
2022-11-24T21:51:55.379Z,100.00
2022-11-24T21:54:23.939Z,100.00
2022-11-24T21:56:53.362Z,100.00
2022-11-24T21:59:24.070Z,100.00
2022-11-24T22:01:52.138Z,100.00
2022-11-24T22:04:20.145Z,100.00
2022-11-24T22:06:48.042Z,100.00
2022-11-24T22:09:18.298Z,100.00
2022-11-24T22:11:49.371Z,100.00
2022-11-24T22:14:17.620Z,100.00
2022-11-24T22:16:46.139Z,100.00
2022-11-24T22:19:14.141Z,100.00
2022-11-24T22:21:42.296Z,100.00
2022-11-24T22:24:10.600Z,100.00
2022-11-24T22:26:38.717Z,100.00
2022-11-24T22:29:07.790Z,100.00
2022-11-24T22:31:36.861Z,100.00
2022-11-24T22:34:05.028Z,100.00
2022-11-24T22:36:33.052Z,100.00
2022-11-24T22:39:03.457Z,100.00
2022-11-24T22:41:34.026Z,100.00
2022-11-24T22:44:02.207Z,100.00
2022-11-24T22:46:31.596Z,100.00
2022-11-24T22:49:01.110Z,100.00
2022-11-24T22:51:34.743Z,100.00
2022-11-24T22:54:04.287Z,100.00
2022-11-24T22:56:33.641Z,100.00
2022-11-24T22:59:02.823Z,100.00
2022-11-24T23:01:32.295Z,100.00
2022-11-24T23:04:17.711Z,100.00
2022-11-24T23:06:45.890Z,100.00
2022-11-24T23:09:14.016Z,100.00
2022-11-24T23:11:41.960Z,100.00
2022-11-24T23:14:15.212Z,100.00
2022-11-24T23:16:46.146Z,100.00
2022-11-24T23:19:14.133Z,100.00
2022-11-24T23:21:42.042Z,100.00
2022-11-24T23:24:10.894Z,100.00
2022-11-24T23:26:40.691Z,100.00
2022-11-24T23:29:10.639Z,100.00
2022-11-24T23:31:41.558Z,100.00
2022-11-24T23:34:09.625Z,100.00
2022-11-24T23:36:38.157Z,100.00
2022-11-24T23:39:09.040Z,100.00
2022-11-24T23:41:36.963Z,100.00
2022-11-24T23:44:05.100Z,100.00
2022-11-24T23:46:33.466Z,100.00
2022-11-24T23:49:01.443Z,100.00
2022-11-24T23:51:33.105Z,100.00
2022-11-24T23:54:01.354Z,100.00
2022-11-24T23:56:33.331Z,100.00
2022-11-24T23:59:03.388Z,100.00
